Terminal Aerodrome Forecast
Issued by NWS San Angelo, TX

Home | Current Version | Previous Version | Text Only | Print | Product List | Glossary On
Versions: 1 2 3 4 5 6 7 8 9 10 11 12 13 14 15 16 17
000
FTUS44 KSJT 252320
TAFABI
TAF
KABI 252320Z 2600/2624 16012KT P6SM FEW050
     FM260600 18013KT P6SM BKN250
     FM261400 20015G22KT P6SM OVC250 PROB30 2620/2622 P6SM TS
      BKN050CB=

USA.gov is the U.S. government's official web portal to all federal, state and local government web resources and services.